sensor_id;sensor_type;location;lat;lon;timestamp;P1;durP1;ratioP1;P2;durP2;ratioP2
18316;SDS011;9284;52.298;21.164;2022-07-04T03:17:10;10.25;;;7.85;;
18316;SDS011;9284;52.298;21.164;2022-07-04T03:19:39;8.75;;;7.15;;
18316;SDS011;9284;52.298;21.164;2022-07-04T03:22:07;8.65;;;7.45;;
18316;SDS011;9284;52.298;21.164;2022-07-04T03:24:35;11.27;;;7.88;;
18316;SDS011;9284;52.298;21.164;2022-07-04T03:27:03;9.65;;;7.70;;
18316;SDS011;9284;52.298;21.164;2022-07-04T03:29:31;12.77;;;8.18;;
18316;SDS011;9284;52.298;21.164;2022-07-04T03:31:59;9.40;;;7.25;;
18316;SDS011;9284;52.298;21.164;2022-07-04T03:34:29;8.93;;;7.35;;
18316;SDS011;9284;52.298;21.164;2022-07-04T03:36:57;8.68;;;7.57;;
18316;SDS011;9284;52.298;21.164;2022-07-04T03:39:25;9.30;;;7.85;;
18316;SDS011;9284;52.298;21.164;2022-07-04T03:41:53;12.57;;;7.57;;
18316;SDS011;9284;52.298;21.164;2022-07-04T03:44:21;9.57;;;7.70;;
18316;SDS011;9284;52.298;21.164;2022-07-04T03:46:49;9.40;;;6.80;;
18316;SDS011;9284;52.298;21.164;2022-07-04T03:49:18;12.02;;;7.15;;
18316;SDS011;9284;52.298;21.164;2022-07-04T03:51:47;7.68;;;5.93;;
18316;SDS011;9284;52.298;21.164;2022-07-04T03:54:15;9.15;;;6.95;;
18316;SDS011;9284;52.298;21.164;2022-07-04T03:56:44;10.23;;;6.75;;
18316;SDS011;9284;52.298;21.164;2022-07-04T03:59:12;9.38;;;6.28;;
18316;SDS011;9284;52.298;21.164;2022-07-04T04:01:40;7.80;;;6.40;;
18316;SDS011;9284;52.298;21.164;2022-07-04T04:04:09;8.07;;;6.45;;
18316;SDS011;9284;52.298;21.164;2022-07-04T04:06:56;10.15;;;6.60;;
18316;SDS011;9284;52.298;21.164;2022-07-04T04:09:24;9.18;;;6.60;;
18316;SDS011;9284;52.298;21.164;2022-07-04T04:11:52;9.10;;;6.25;;
18316;SDS011;9284;52.298;21.164;2022-07-04T04:14:21;7.30;;;6.18;;
18316;SDS011;9284;52.298;21.164;2022-07-04T04:16:50;7.65;;;5.82;;
18316;SDS011;9284;52.298;21.164;2022-07-04T04:19:18;9.43;;;5.97;;
18316;SDS011;9284;52.298;21.164;2022-07-04T04:21:47;9.38;;;5.85;;
18316;SDS011;9284;52.298;21.164;2022-07-04T04:24:16;7.75;;;6.18;;
18316;SDS011;9284;52.298;21.164;2022-07-04T04:26:44;7.80;;;5.97;;
18316;SDS011;9284;52.298;21.164;2022-07-04T04:29:13;10.68;;;5.63;;
18316;SDS011;9284;52.298;21.164;2022-07-04T04:31:41;7.57;;;5.47;;
18316;SDS011;9284;52.298;21.164;2022-07-04T04:34:09;9.32;;;6.55;;
18316;SDS011;9284;52.298;21.164;2022-07-04T04:36:37;8.77;;;6.10;;
18316;SDS011;9284;52.298;21.164;2022-07-04T04:39:05;9.52;;;7.57;;
18316;SDS011;9284;52.298;21.164;2022-07-04T04:41:35;13.15;;;7.05;;
18316;SDS011;9284;52.298;21.164;2022-07-04T04:44:03;12.38;;;8.68;;
18316;SDS011;9284;52.298;21.164;2022-07-04T04:46:31;9.50;;;6.47;;
18316;SDS011;9284;52.298;21.164;2022-07-04T04:49:00;9.07;;;6.70;;
18316;SDS011;9284;52.298;21.164;2022-07-04T04:51:28;14.68;;;6.75;;
18316;SDS011;9284;52.298;21.164;2022-07-04T04:53:57;9.80;;;6.85;;
18316;SDS011;9284;52.298;21.164;2022-07-04T04:56:25;8.88;;;6.13;;
18316;SDS011;9284;52.298;21.164;2022-07-04T04:58:55;9.07;;;6.65;;
18316;SDS011;9284;52.298;21.164;2022-07-04T05:01:23;8.48;;;6.55;;
18316;SDS011;9284;52.298;21.164;2022-07-04T05:04:07;9.43;;;7.05;;
18316;SDS011;9284;52.298;21.164;2022-07-04T05:06:35;10.57;;;8.40;;
18316;SDS011;9284;52.298;21.164;2022-07-04T05:09:04;14.57;;;9.35;;
18316;SDS011;9284;52.298;21.164;2022-07-04T05:11:32;9.70;;;8.38;;
18316;SDS011;9284;52.298;21.164;2022-07-04T05:14:02;9.60;;;8.57;;
18316;SDS011;9284;52.298;21.164;2022-07-04T05:16:30;12.45;;;8.68;;
18316;SDS011;9284;52.298;21.164;2022-07-04T05:18:58;9.48;;;7.72;;
18316;SDS011;9284;52.298;21.164;2022-07-04T05:21:27;9.95;;;7.65;;
18316;SDS011;9284;52.298;21.164;2022-07-04T05:23:55;13.45;;;8.15;;
18316;SDS011;9284;52.298;21.164;2022-07-04T05:26:23;11.93;;;8.32;;
18316;SDS011;9284;52.298;21.164;2022-07-04T05:28:52;9.23;;;7.68;;
18316;SDS011;9284;52.298;21.164;2022-07-04T05:31:23;9.10;;;7.85;;
18316;SDS011;9284;52.298;21.164;2022-07-04T05:33:52;10.13;;;7.88;;
18316;SDS011;9284;52.298;21.164;2022-07-04T05:36:20;9.95;;;7.50;;
18316;SDS011;9284;52.298;21.164;2022-07-04T05:38:55;9.95;;;6.95;;
18316;SDS011;9284;52.298;21.164;2022-07-04T05:41:23;9.55;;;6.72;;
18316;SDS011;9284;52.298;21.164;2022-07-04T05:43:52;9.60;;;6.90;;
18316;SDS011;9284;52.298;21.164;2022-07-04T05:46:25;7.75;;;6.22;;
18316;SDS011;9284;52.298;21.164;2022-07-04T05:48:53;7.10;;;6.40;;
18316;SDS011;9284;52.298;21.164;2022-07-04T05:51:22;9.52;;;6.45;;
18316;SDS011;9284;52.298;21.164;2022-07-04T05:53:50;9.50;;;6.50;;
18316;SDS011;9284;52.298;21.164;2022-07-04T05:56:18;9.88;;;6.82;;
18316;SDS011;9284;52.298;21.164;2022-07-04T05:58:46;8.30;;;5.93;;
18316;SDS011;9284;52.298;21.164;2022-07-04T06:01:15;10.98;;;6.78;;
18316;SDS011;9284;52.298;21.164;2022-07-04T06:03:44;8.85;;;6.05;;
18316;SDS011;9284;52.298;21.164;2022-07-04T06:06:12;8.73;;;6.35;;
18316;SDS011;9284;52.298;21.164;2022-07-04T06:08:42;6.28;;;5.40;;
18316;SDS011;9284;52.298;21.164;2022-07-04T06:11:10;9.38;;;6.60;;
18316;SDS011;9284;52.298;21.164;2022-07-04T06:13:38;6.65;;;5.38;;
18316;SDS011;9284;52.298;21.164;2022-07-04T06:16:06;7.28;;;5.97;;
18316;SDS011;9284;52.298;21.164;2022-07-04T06:18:34;9.30;;;7.07;;
18316;SDS011;9284;52.298;21.164;2022-07-04T06:21:04;10.20;;;6.72;;
18316;SDS011;9284;52.298;21.164;2022-07-04T06:23:32;8.20;;;5.63;;
18316;SDS011;9284;52.298;21.164;2022-07-04T06:26:00;7.80;;;5.03;;
18316;SDS011;9284;52.298;21.164;2022-07-04T06:28:29;7.70;;;5.30;;
18316;SDS011;9284;52.298;21.164;2022-07-04T06:31:12;6.07;;;4.60;;
18316;SDS011;9284;52.298;21.164;2022-07-04T06:33:41;5.53;;;4.93;;
18316;SDS011;9284;52.298;21.164;2022-07-04T06:36:29;5.45;;;4.22;;
18316;SDS011;9284;52.298;21.164;2022-07-04T06:38:57;5.35;;;4.38;;
18316;SDS011;9284;52.298;21.164;2022-07-04T06:41:25;5.50;;;4.45;;
18316;SDS011;9284;52.298;21.164;2022-07-04T06:43:54;5.90;;;4.45;;
18316;SDS011;9284;52.298;21.164;2022-07-04T06:46:22;6.35;;;4.53;;
18316;SDS011;9284;52.298;21.164;2022-07-04T06:48:50;5.85;;;4.30;;
18316;SDS011;9284;52.298;21.164;2022-07-04T06:51:18;5.82;;;5.10;;
18316;SDS011;9284;52.298;21.164;2022-07-04T06:53:48;5.40;;;4.68;;
18316;SDS011;9284;52.298;21.164;2022-07-04T06:56:17;5.85;;;5.13;;
18316;SDS011;9284;52.298;21.164;2022-07-04T06:58:45;6.22;;;4.40;;
18316;SDS011;9284;52.298;21.164;2022-07-04T07:01:14;4.85;;;4.20;;
18316;SDS011;9284;52.298;21.164;2022-07-04T07:03:43;6.22;;;4.22;;
18316;SDS011;9284;52.298;21.164;2022-07-04T07:06:12;5.68;;;4.13;;
18316;SDS011;9284;52.298;21.164;2022-07-04T07:08:40;5.43;;;3.85;;
18316;SDS011;9284;52.298;21.164;2022-07-04T07:11:09;5.93;;;4.85;;
18316;SDS011;9284;52.298;21.164;2022-07-04T07:13:41;6.13;;;4.35;;
18316;SDS011;9284;52.298;21.164;2022-07-04T07:16:10;4.30;;;3.90;;
18316;SDS011;9284;52.298;21.164;2022-07-04T07:18:38;5.07;;;4.32;;
18316;SDS011;9284;52.298;21.164;2022-07-04T07:21:07;5.45;;;4.95;;
18316;SDS011;9284;52.298;21.164;2022-07-04T07:23:37;5.30;;;4.72;;
18316;SDS011;9284;52.298;21.164;2022-07-04T07:26:06;6.03;;;4.32;;
18316;SDS011;9284;52.298;21.164;2022-07-04T07:28:36;5.18;;;4.20;;
18316;SDS011;9284;52.298;21.164;2022-07-04T07:31:04;4.57;;;3.95;;
18316;SDS011;9284;52.298;21.164;2022-07-04T07:33:32;6.07;;;4.60;;
18316;SDS011;9284;52.298;21.164;2022-07-04T07:36:01;5.60;;;3.90;;
18316;SDS011;9284;52.298;21.164;2022-07-04T07:38:29;5.05;;;3.58;;
18316;SDS011;9284;52.298;21.164;2022-07-04T07:40:59;4.55;;;3.60;;
18316;SDS011;9284;52.298;21.164;2022-07-04T07:43:27;7.88;;;3.65;;
18316;SDS011;9284;52.298;21.164;2022-07-04T07:45:58;4.43;;;3.42;;
18316;SDS011;9284;52.298;21.164;2022-07-04T07:48:27;4.47;;;3.47;;
18316;SDS011;9284;52.298;21.164;2022-07-04T07:50:57;3.72;;;3.38;;
18316;SDS011;9284;52.298;21.164;2022-07-04T07:53:25;6.10;;;3.75;;
18316;SDS011;9284;52.298;21.164;2022-07-04T07:55:54;4.40;;;3.95;;
18316;SDS011;9284;52.298;21.164;2022-07-04T07:58:22;4.72;;;3.88;;
18316;SDS011;9284;52.298;21.164;2022-07-04T08:00:54;4.15;;;3.75;;
18316;SDS011;9284;52.298;21.164;2022-07-04T08:03:37;5.88;;;4.30;;
18316;SDS011;9284;52.298;21.164;2022-07-04T08:06:23;4.80;;;4.35;;
18316;SDS011;9284;52.298;21.164;2022-07-04T08:09:02;5.60;;;3.90;;
18316;SDS011;9284;52.298;21.164;2022-07-04T08:11:40;9.60;;;4.00;;
18316;SDS011;9284;52.298;21.164;2022-07-04T08:14:14;4.60;;;3.70;;
18316;SDS011;9284;52.298;21.164;2022-07-04T08:16:45;5.80;;;3.90;;
18316;SDS011;9284;52.298;21.164;2022-07-04T08:19:24;4.75;;;4.25;;
18316;SDS011;9284;52.298;21.164;2022-07-04T08:22:06;7.35;;;4.30;;
18316;SDS011;9284;52.298;21.164;2022-07-04T08:24:47;6.53;;;4.38;;
18316;SDS011;9284;52.298;21.164;2022-07-04T08:27:24;8.23;;;4.25;;
18316;SDS011;9284;52.298;21.164;2022-07-04T08:29:58;4.50;;;4.10;;
18316;SDS011;9284;52.298;21.164;2022-07-04T08:33:03;7.10;;;4.10;;
18316;SDS011;9284;52.298;21.164;2022-07-04T08:38:40;4.57;;;3.10;;
18316;SDS011;9284;52.298;21.164;2022-07-04T08:41:47;3.72;;;2.97;;
18316;SDS011;9284;52.298;21.164;2022-07-04T08:44:23;6.00;;;3.50;;
18316;SDS011;9284;52.298;21.164;2022-07-04T08:47:01;5.93;;;3.88;;
18316;SDS011;9284;52.298;21.164;2022-07-04T08:49:33;5.97;;;3.45;;
18316;SDS011;9284;52.298;21.164;2022-07-04T08:52:07;3.63;;;3.33;;
18316;SDS011;9284;52.298;21.164;2022-07-04T08:54:43;3.67;;;3.08;;
18316;SDS011;9284;52.298;21.164;2022-07-04T08:57:32;4.38;;;3.42;;
18316;SDS011;9284;52.298;21.164;2022-07-04T09:00:46;5.10;;;3.20;;
18316;SDS011;9284;52.298;21.164;2022-07-04T09:04:12;6.57;;;2.90;;
18316;SDS011;9284;52.298;21.164;2022-07-04T09:07:21;4.50;;;2.95;;
18316;SDS011;9284;52.298;21.164;2022-07-04T09:10:00;3.35;;;1.92;;
18316;SDS011;9284;52.298;21.164;2022-07-04T09:12:32;3.80;;;1.83;;
18316;SDS011;9284;52.298;21.164;2022-07-04T09:15:22;3.75;;;2.55;;
18316;SDS011;9284;52.298;21.164;2022-07-04T09:17:55;6.05;;;2.50;;
18316;SDS011;9284;52.298;21.164;2022-07-04T09:20:33;5.65;;;3.10;;
18316;SDS011;9284;52.298;21.164;2022-07-04T09:23:17;5.03;;;2.35;;
18316;SDS011;9284;52.298;21.164;2022-07-04T09:25:47;3.67;;;2.10;;
18316;SDS011;9284;52.298;21.164;2022-07-04T09:28:27;6.47;;;2.47;;
18316;SDS011;9284;52.298;21.164;2022-07-04T09:30:56;4.07;;;2.22;;
18316;SDS011;9284;52.298;21.164;2022-07-04T09:33:43;5.15;;;2.92;;
18316;SDS011;9284;52.298;21.164;2022-07-04T09:36:16;5.25;;;2.88;;
18316;SDS011;9284;52.298;21.164;2022-07-04T09:38:48;5.00;;;3.33;;
18316;SDS011;9284;52.298;21.164;2022-07-04T09:41:35;4.60;;;3.13;;
18316;SDS011;9284;52.298;21.164;2022-07-04T09:44:17;4.22;;;3.10;;
18316;SDS011;9284;52.298;21.164;2022-07-04T09:46:46;7.72;;;3.60;;
18316;SDS011;9284;52.298;21.164;2022-07-04T09:49:19;4.60;;;3.33;;
18316;SDS011;9284;52.298;21.164;2022-07-04T09:51:48;7.80;;;3.30;;
18316;SDS011;9284;52.298;21.164;2022-07-04T09:54:22;3.55;;;3.03;;
18316;SDS011;9284;52.298;21.164;2022-07-04T09:56:56;4.28;;;3.10;;
18316;SDS011;9284;52.298;21.164;2022-07-04T09:59:27;8.00;;;2.83;;
18316;SDS011;9284;52.298;21.164;2022-07-04T10:02:05;9.30;;;3.30;;
18316;SDS011;9284;52.298;21.164;2022-07-04T10:04:45;5.53;;;3.60;;
18316;SDS011;9284;52.298;21.164;2022-07-04T10:07:34;4.65;;;3.10;;
18316;SDS011;9284;52.298;21.164;2022-07-04T10:12:54;3.60;;;2.85;;
18316;SDS011;9284;52.298;21.164;2022-07-04T10:15:28;3.35;;;2.80;;
18316;SDS011;9284;52.298;21.164;2022-07-04T10:17:56;3.88;;;2.88;;
18316;SDS011;9284;52.298;21.164;2022-07-04T10:20:25;5.93;;;2.70;;
18316;SDS011;9284;52.298;21.164;2022-07-04T10:22:53;6.28;;;2.80;;
18316;SDS011;9284;52.298;21.164;2022-07-04T10:25:22;4.13;;;2.50;;
18316;SDS011;9284;52.298;21.164;2022-07-04T10:27:52;2.90;;;2.38;;
18316;SDS011;9284;52.298;21.164;2022-07-04T10:30:21;2.58;;;2.30;;
18316;SDS011;9284;52.298;21.164;2022-07-04T10:32:55;2.28;;;2.08;;
18316;SDS011;9284;52.298;21.164;2022-07-04T10:38:20;3.65;;;2.33;;
18316;SDS011;9284;52.298;21.164;2022-07-04T10:40:51;2.80;;;2.15;;
18316;SDS011;9284;52.298;21.164;2022-07-04T10:46:33;2.75;;;2.38;;
18316;SDS011;9284;52.298;21.164;2022-07-04T10:49:17;2.63;;;2.30;;
18316;SDS011;9284;52.298;21.164;2022-07-04T10:51:50;2.58;;;2.38;;
18316;SDS011;9284;52.298;21.164;2022-07-04T10:54:20;4.10;;;2.30;;
18316;SDS011;9284;52.298;21.164;2022-07-04T10:56:57;2.80;;;2.33;;
18316;SDS011;9284;52.298;21.164;2022-07-04T10:59:36;3.67;;;2.50;;
18316;SDS011;9284;52.298;21.164;2022-07-04T11:04:58;2.60;;;2.30;;
18316;SDS011;9284;52.298;21.164;2022-07-04T11:10:28;3.28;;;2.30;;
18316;SDS011;9284;52.298;21.164;2022-07-04T11:13:08;3.25;;;2.20;;
18316;SDS011;9284;52.298;21.164;2022-07-04T11:15:58;3.78;;;2.75;;
18316;SDS011;9284;52.298;21.164;2022-07-04T11:18:40;3.15;;;2.70;;
18316;SDS011;9284;52.298;21.164;2022-07-04T11:21:19;3.92;;;2.50;;
18316;SDS011;9284;52.298;21.164;2022-07-04T11:23:51;3.10;;;2.58;;
18316;SDS011;9284;52.298;21.164;2022-07-04T11:26:25;4.38;;;2.83;;
18316;SDS011;9284;52.298;21.164;2022-07-04T11:28:56;7.05;;;2.67;;
18316;SDS011;9284;52.298;21.164;2022-07-04T11:31:36;5.50;;;2.60;;
18316;SDS011;9284;52.298;21.164;2022-07-04T11:34:08;6.10;;;2.65;;
18316;SDS011;9284;52.298;21.164;2022-07-04T11:36:37;3.55;;;2.65;;
18316;SDS011;9284;52.298;21.164;2022-07-04T11:39:17;3.15;;;2.58;;
18316;SDS011;9284;52.298;21.164;2022-07-04T11:41:49;3.58;;;2.60;;
18316;SDS011;9284;52.298;21.164;2022-07-04T11:44:58;2.63;;;2.17;;
18316;SDS011;9284;52.298;21.164;2022-07-04T11:47:34;3.47;;;2.17;;
18316;SDS011;9284;52.298;21.164;2022-07-04T11:50:07;2.40;;;2.20;;
18316;SDS011;9284;52.298;21.164;2022-07-04T11:52:40;2.88;;;2.15;;
18316;SDS011;9284;52.298;21.164;2022-07-04T11:55:33;5.32;;;2.50;;
18316;SDS011;9284;52.298;21.164;2022-07-04T11:58:01;2.78;;;2.35;;
18316;SDS011;9284;52.298;21.164;2022-07-04T12:00:36;3.03;;;2.35;;
18316;SDS011;9284;52.298;21.164;2022-07-04T12:03:05;5.65;;;2.35;;
18316;SDS011;9284;52.298;21.164;2022-07-04T12:05:38;3.88;;;2.50;;
18316;SDS011;9284;52.298;21.164;2022-07-04T12:08:06;6.70;;;2.47;;
18316;SDS011;9284;52.298;21.164;2022-07-04T12:10:51;3.70;;;2.70;;
18316;SDS011;9284;52.298;21.164;2022-07-04T12:13:26;2.65;;;2.45;;
18316;SDS011;9284;52.298;21.164;2022-07-04T12:16:16;2.75;;;2.50;;
18316;SDS011;9284;52.298;21.164;2022-07-04T12:18:45;2.90;;;2.60;;
18316;SDS011;9284;52.298;21.164;2022-07-04T12:21:16;3.22;;;2.00;;
18316;SDS011;9284;52.298;21.164;2022-07-04T12:23:50;2.25;;;2.05;;
18316;SDS011;9284;52.298;21.164;2022-07-04T12:26:43;3.55;;;2.08;;
18316;SDS011;9284;52.298;21.164;2022-07-04T12:29:20;2.72;;;2.25;;
18316;SDS011;9284;52.298;21.164;2022-07-04T12:31:57;3.38;;;2.33;;
18316;SDS011;9284;52.298;21.164;2022-07-04T12:34:25;2.97;;;2.30;;
18316;SDS011;9284;52.298;21.164;2022-07-04T12:36:55;4.55;;;2.25;;
18316;SDS011;9284;52.298;21.164;2022-07-04T12:39:29;2.55;;;2.35;;
18316;SDS011;9284;52.298;21.164;2022-07-04T12:42:05;6.20;;;2.50;;
18316;SDS011;9284;52.298;21.164;2022-07-04T12:44:37;2.78;;;2.17;;
18316;SDS011;9284;52.298;21.164;2022-07-04T12:47:07;2.92;;;2.60;;
18316;SDS011;9284;52.298;21.164;2022-07-04T12:49:50;3.05;;;2.65;;
18316;SDS011;9284;52.298;21.164;2022-07-04T12:52:20;2.63;;;2.05;;
18316;SDS011;9284;52.298;21.164;2022-07-04T12:55:01;2.63;;;2.13;;
18316;SDS011;9284;52.298;21.164;2022-07-04T12:57:30;4.82;;;2.28;;
18316;SDS011;9284;52.298;21.164;2022-07-04T12:59:59;3.38;;;2.35;;
18316;SDS011;9284;52.298;21.164;2022-07-04T13:02:47;2.50;;;2.28;;
18316;SDS011;9284;52.298;21.164;2022-07-04T13:05:16;4.22;;;2.28;;
18316;SDS011;9284;52.298;21.164;2022-07-04T13:07:46;2.40;;;2.20;;
18316;SDS011;9284;52.298;21.164;2022-07-04T13:10:15;3.72;;;2.42;;
18316;SDS011;9284;52.298;21.164;2022-07-04T13:12:44;6.25;;;2.60;;
18316;SDS011;9284;52.298;21.164;2022-07-04T13:15:11;2.95;;;2.10;;
18316;SDS011;9284;52.298;21.164;2022-07-04T13:17:39;2.38;;;2.17;;
18316;SDS011;9284;52.298;21.164;2022-07-04T13:20:08;2.50;;;2.22;;
18316;SDS011;9284;52.298;21.164;2022-07-04T13:22:45;4.47;;;2.08;;
18316;SDS011;9284;52.298;21.164;2022-07-04T13:25:14;4.32;;;2.33;;
18316;SDS011;9284;52.298;21.164;2022-07-04T13:27:45;2.35;;;2.10;;
18316;SDS011;9284;52.298;21.164;2022-07-04T13:30:13;5.85;;;2.67;;
18316;SDS011;9284;52.298;21.164;2022-07-04T13:32:42;3.10;;;2.38;;
18316;SDS011;9284;52.298;21.164;2022-07-04T13:35:10;2.60;;;2.38;;
18316;SDS011;9284;52.298;21.164;2022-07-04T13:37:38;2.72;;;2.40;;
18316;SDS011;9284;52.298;21.164;2022-07-04T13:40:09;2.45;;;2.25;;
18316;SDS011;9284;52.298;21.164;2022-07-04T13:42:38;2.53;;;2.28;;
18316;SDS011;9284;52.298;21.164;2022-07-04T13:45:20;2.30;;;2.10;;
18316;SDS011;9284;52.298;21.164;2022-07-04T13:47:50;2.38;;;2.17;;
18316;SDS011;9284;52.298;21.164;2022-07-04T13:50:20;2.17;;;1.98;;
18316;SDS011;9284;52.298;21.164;2022-07-04T13:52:50;4.40;;;2.75;;
18316;SDS011;9284;52.298;21.164;2022-07-04T13:55:20;5.28;;;2.50;;
18316;SDS011;9284;52.298;21.164;2022-07-04T13:57:48;2.40;;;2.20;;
18316;SDS011;9284;52.298;21.164;2022-07-04T14:00:17;2.63;;;2.20;;
18316;SDS011;9284;52.298;21.164;2022-07-04T14:02:45;2.40;;;2.20;;
18316;SDS011;9284;52.298;21.164;2022-07-04T14:05:14;4.45;;;2.30;;
18316;SDS011;9284;52.298;21.164;2022-07-04T14:07:42;2.20;;;2.10;;
18316;SDS011;9284;52.298;21.164;2022-07-04T14:10:10;2.60;;;2.25;;
18316;SDS011;9284;52.298;21.164;2022-07-04T14:12:40;6.78;;;2.40;;
18316;SDS011;9284;52.298;21.164;2022-07-04T14:15:08;7.30;;;2.22;;
18316;SDS011;9284;52.298;21.164;2022-07-04T14:17:37;3.90;;;2.40;;
18316;SDS011;9284;52.298;21.164;2022-07-04T14:20:06;2.40;;;2.20;;
18316;SDS011;9284;52.298;21.164;2022-07-04T14:22:36;2.17;;;2.03;;
18316;SDS011;9284;52.298;21.164;2022-07-04T14:25:05;3.08;;;2.30;;
18316;SDS011;9284;52.298;21.164;2022-07-04T14:27:34;3.95;;;2.22;;
18316;SDS011;9284;52.298;21.164;2022-07-04T14:30:05;2.53;;;2.33;;
18316;SDS011;9284;52.298;21.164;2022-07-04T14:32:34;3.90;;;2.20;;
18316;SDS011;9284;52.298;21.164;2022-07-04T14:35:03;3.25;;;2.40;;
18316;SDS011;9284;52.298;21.164;2022-07-04T14:37:37;5.10;;;2.30;;
18316;SDS011;9284;52.298;21.164;2022-07-04T14:40:06;2.85;;;2.35;;
18316;SDS011;9284;52.298;21.164;2022-07-04T14:42:35;6.95;;;2.60;;
18316;SDS011;9284;52.298;21.164;2022-07-04T14:45:05;5.75;;;2.55;;
18316;SDS011;9284;52.298;21.164;2022-07-04T14:47:34;2.88;;;2.35;;
18316;SDS011;9284;52.298;21.164;2022-07-04T14:50:03;2.95;;;2.40;;
18316;SDS011;9284;52.298;21.164;2022-07-04T14:52:31;5.90;;;2.42;;
18316;SDS011;9284;52.298;21.164;2022-07-04T14:55:00;2.60;;;2.40;;
18316;SDS011;9284;52.298;21.164;2022-07-04T14:57:28;3.00;;;2.80;;
18316;SDS011;9284;52.298;21.164;2022-07-04T14:59:56;2.97;;;2.67;;
18316;SDS011;9284;52.298;21.164;2022-07-04T15:02:26;3.20;;;2.58;;
18316;SDS011;9284;52.298;21.164;2022-07-04T15:04:54;3.08;;;2.50;;
18316;SDS011;9284;52.298;21.164;2022-07-04T15:07:23;3.00;;;2.70;;
18316;SDS011;9284;52.298;21.164;2022-07-04T15:09:52;2.65;;;2.40;;
18316;SDS011;9284;52.298;21.164;2022-07-04T15:12:20;3.00;;;2.70;;
18316;SDS011;9284;52.298;21.164;2022-07-04T15:14:49;3.25;;;2.95;;
18316;SDS011;9284;52.298;21.164;2022-07-04T15:17:17;3.00;;;2.70;;
18316;SDS011;9284;52.298;21.164;2022-07-04T15:19:47;3.40;;;2.70;;
18316;SDS011;9284;52.298;21.164;2022-07-04T15:22:33;3.88;;;2.53;;
18316;SDS011;9284;52.298;21.164;2022-07-04T15:25:18;4.63;;;2.95;;
18316;SDS011;9284;52.298;21.164;2022-07-04T15:27:46;2.92;;;2.65;;
18316;SDS011;9284;52.298;21.164;2022-07-04T15:30:15;4.18;;;2.53;;
18316;SDS011;9284;52.298;21.164;2022-07-04T15:32:44;6.80;;;3.33;;
18316;SDS011;9284;52.298;21.164;2022-07-04T15:35:13;3.95;;;2.80;;
18316;SDS011;9284;52.298;21.164;2022-07-04T15:37:42;10.38;;;2.83;;
18316;SDS011;9284;52.298;21.164;2022-07-04T15:40:10;3.50;;;2.63;;
18316;SDS011;9284;52.298;21.164;2022-07-04T15:42:38;4.50;;;2.60;;
18316;SDS011;9284;52.298;21.164;2022-07-04T15:45:07;4.03;;;2.97;;
18316;SDS011;9284;52.298;21.164;2022-07-04T15:47:36;3.28;;;2.90;;
18316;SDS011;9284;52.298;21.164;2022-07-04T15:50:05;6.45;;;3.25;;
18316;SDS011;9284;52.298;21.164;2022-07-04T15:52:35;6.47;;;3.10;;
18316;SDS011;9284;52.298;21.164;2022-07-04T15:55:03;3.67;;;2.92;;
18316;SDS011;9284;52.298;21.164;2022-07-04T15:57:38;3.40;;;3.10;;
18316;SDS011;9284;52.298;21.164;2022-07-04T16:00:06;3.35;;;2.90;;
18316;SDS011;9284;52.298;21.164;2022-07-04T16:02:38;5.45;;;3.38;;
18316;SDS011;9284;52.298;21.164;2022-07-04T16:05:07;3.72;;;2.78;;
18316;SDS011;9284;52.298;21.164;2022-07-04T16:07:39;4.75;;;3.22;;
18316;SDS011;9284;52.298;21.164;2022-07-04T16:10:07;3.90;;;3.05;;
18316;SDS011;9284;52.298;21.164;2022-07-04T16:12:36;4.65;;;3.33;;
18316;SDS011;9284;52.298;21.164;2022-07-04T16:15:05;6.25;;;3.60;;
18316;SDS011;9284;52.298;21.164;2022-07-04T16:17:33;3.90;;;2.80;;
18316;SDS011;9284;52.298;21.164;2022-07-04T16:20:02;6.07;;;3.28;;
18316;SDS011;9284;52.298;21.164;2022-07-04T16:22:34;3.65;;;3.20;;
18316;SDS011;9284;52.298;21.164;2022-07-04T16:25:04;3.40;;;2.97;;
18316;SDS011;9284;52.298;21.164;2022-07-04T16:27:38;5.50;;;3.38;;
18316;SDS011;9284;52.298;21.164;2022-07-04T16:30:06;6.40;;;3.30;;
18316;SDS011;9284;52.298;21.164;2022-07-04T16:32:35;7.75;;;3.20;;
18316;SDS011;9284;52.298;21.164;2022-07-04T16:35:05;5.28;;;3.03;;
18316;SDS011;9284;52.298;21.164;2022-07-04T16:37:34;3.22;;;2.92;;
18316;SDS011;9284;52.298;21.164;2022-07-04T16:40:06;4.47;;;3.00;;
18316;SDS011;9284;52.298;21.164;2022-07-04T16:42:35;6.95;;;3.67;;
18316;SDS011;9284;52.298;21.164;2022-07-04T16:45:04;4.90;;;3.00;;
18316;SDS011;9284;52.298;21.164;2022-07-04T16:47:32;3.55;;;3.20;;
18316;SDS011;9284;52.298;21.164;2022-07-04T16:50:01;5.43;;;3.30;;
18316;SDS011;9284;52.298;21.164;2022-07-04T16:52:29;5.78;;;3.50;;
18316;SDS011;9284;52.298;21.164;2022-07-04T16:54:58;4.47;;;3.35;;
18316;SDS011;9284;52.298;21.164;2022-07-04T16:57:28;4.82;;;3.20;;
18316;SDS011;9284;52.298;21.164;2022-07-04T16:59:56;4.03;;;2.95;;
18316;SDS011;9284;52.298;21.164;2022-07-04T17:02:24;6.82;;;3.30;;
18316;SDS011;9284;52.298;21.164;2022-07-04T17:04:53;5.35;;;3.50;;
18316;SDS011;9284;52.298;21.164;2022-07-04T17:07:21;6.20;;;3.30;;
18316;SDS011;9284;52.298;21.164;2022-07-04T17:09:53;3.72;;;3.40;;
18316;SDS011;9284;52.298;21.164;2022-07-04T17:12:53;4.80;;;3.53;;
18316;SDS011;9284;52.298;21.164;2022-07-04T17:15:21;6.22;;;3.42;;
18316;SDS011;9284;52.298;21.164;2022-07-04T17:17:50;5.55;;;3.45;;
18316;SDS011;9284;52.298;21.164;2022-07-04T17:20:18;5.82;;;3.83;;
18316;SDS011;9284;52.298;21.164;2022-07-04T17:22:46;5.53;;;3.70;;
18316;SDS011;9284;52.298;21.164;2022-07-04T17:25:14;5.88;;;3.67;;
18316;SDS011;9284;52.298;21.164;2022-07-04T17:27:42;9.13;;;3.80;;
18316;SDS011;9284;52.298;21.164;2022-07-04T17:30:12;6.93;;;3.55;;
18316;SDS011;9284;52.298;21.164;2022-07-04T17:32:41;6.15;;;3.85;;
18316;SDS011;9284;52.298;21.164;2022-07-04T17:35:09;6.00;;;3.40;;
18316;SDS011;9284;52.298;21.164;2022-07-04T17:37:37;4.07;;;3.35;;
18316;SDS011;9284;52.298;21.164;2022-07-04T17:40:06;9.13;;;3.67;;
18316;SDS011;9284;52.298;21.164;2022-07-04T17:42:34;8.82;;;3.90;;
18316;SDS011;9284;52.298;21.164;2022-07-04T17:45:03;6.70;;;3.67;;
18316;SDS011;9284;52.298;21.164;2022-07-04T17:47:33;9.80;;;3.28;;
18316;SDS011;9284;52.298;21.164;2022-07-04T17:50:01;5.93;;;3.53;;
18316;SDS011;9284;52.298;21.164;2022-07-04T17:52:30;6.45;;;3.67;;
18316;SDS011;9284;52.298;21.164;2022-07-04T17:54:58;4.07;;;3.63;;
18316;SDS011;9284;52.298;21.164;2022-07-04T17:57:26;5.50;;;3.70;;
18316;SDS011;9284;52.298;21.164;2022-07-04T17:59:55;6.63;;;4.10;;
18316;SDS011;9284;52.298;21.164;2022-07-04T18:02:23;5.82;;;3.40;;
18316;SDS011;9284;52.298;21.164;2022-07-04T18:04:53;4.75;;;3.80;;
18316;SDS011;9284;52.298;21.164;2022-07-04T18:07:21;6.22;;;3.75;;
18316;SDS011;9284;52.298;21.164;2022-07-04T18:09:49;3.88;;;3.47;;
18316;SDS011;9284;52.298;21.164;2022-07-04T18:12:18;4.78;;;3.50;;
18316;SDS011;9284;52.298;21.164;2022-07-04T18:14:49;5.00;;;3.78;;
18316;SDS011;9284;52.298;21.164;2022-07-04T18:17:18;5.22;;;3.83;;
18316;SDS011;9284;52.298;21.164;2022-07-04T18:19:46;4.20;;;3.80;;
18316;SDS011;9284;52.298;21.164;2022-07-04T18:22:15;5.88;;;3.38;;
18316;SDS011;9284;52.298;21.164;2022-07-04T18:24:44;7.53;;;4.03;;
18316;SDS011;9284;52.298;21.164;2022-07-04T18:27:12;5.72;;;3.72;;
18316;SDS011;9284;52.298;21.164;2022-07-04T18:29:41;5.70;;;3.63;;
18316;SDS011;9284;52.298;21.164;2022-07-04T18:32:09;5.43;;;3.85;;
18316;SDS011;9284;52.298;21.164;2022-07-04T18:34:37;4.50;;;3.60;;
18316;SDS011;9284;52.298;21.164;2022-07-04T18:37:06;7.35;;;3.67;;
18316;SDS011;9284;52.298;21.164;2022-07-04T18:39:35;5.43;;;3.42;;
18316;SDS011;9284;52.298;21.164;2022-07-04T18:42:03;8.68;;;3.88;;
18316;SDS011;9284;52.298;21.164;2022-07-04T18:44:49;4.57;;;3.78;;
18316;SDS011;9284;52.298;21.164;2022-07-04T18:47:17;9.77;;;4.10;;
18316;SDS011;9284;52.298;21.164;2022-07-04T18:49:45;5.28;;;3.50;;